Time;durP1;ratioP1;P1;durP2;ratioP2;P2;SDS_P1;SDS_P2;PMS_P1;PMS_P2;Temp;Humidity;BMP_temperature;BMP_pressure;BME280_temperature;BME280_humidity;BME280_pressure;Samples;Min_cycle;Max_cycle;Signal;HPM_P1;HPM_P2
2023/01/07 00:01:23;;;;;;;9.35;4.25;;;;;;;;;;4982149;28;20500;-68
2023/01/07 00:03:49;;;;;;;8.05;4.53;;;;;;;;;;5006260;28;20356;-67
2023/01/07 00:06:16;;;;;;;8.13;4.30;;;;;;;;;;4999467;28;20037;-68
2023/01/07 00:08:43;;;;;;;7.47;4.28;;;;;;;;;;4980332;28;20562;-68
2023/01/07 00:11:11;;;;;;;10.52;4.97;;;;;;;;;;4991992;28;20030;-68
2023/01/07 00:13:38;;;;;;;8.18;5.03;;;;;;;;;;4981028;28;20027;-68
2023/01/07 00:16:07;;;;;;;8.50;5.32;;;;;;;;;;4991161;28;20483;-68
2023/01/07 00:18:33;;;;;;;6.68;4.30;;;;;;;;;;4981579;28;20413;-68
2023/01/07 00:21:02;;;;;;;9.93;4.68;;;;;;;;;;4990474;28;20034;-68
2023/01/07 00:23:29;;;;;;;10.38;4.03;;;;;;;;;;4982135;28;20031;-68
2023/01/07 00:26:21;;;;;;;9.57;4.72;;;;;;;;;;4989426;28;20379;-68
2023/01/07 00:28:48;;;;;;;8.90;4.03;;;;;;;;;;4978289;28;20038;-68
2023/01/07 00:31:23;;;;;;;5.82;4.30;;;;;;;;;;4992261;28;20487;-68
2023/01/07 00:36:28;;;;;;;8.63;4.65;;;;;;;;;;4993204;28;20026;-68
2023/01/07 00:38:54;;;;;;;;;;;;;;;;;;4978845;28;20066;-68
2023/01/07 00:41:20;;;;;;;10.45;5.03;;;;;;;;;;5007946;28;20275;-68
2023/01/07 00:43:45;;;;;;;9.90;5.82;;;;;;;;;;4999208;28;20097;-68
2023/01/07 00:46:13;;;;;;;10.95;6.10;;;;;;;;;;4980445;28;20396;-68
2023/01/07 00:48:39;;;;;;;9.82;5.30;;;;;;;;;;4990718;28;20487;-68
2023/01/07 00:51:04;;;;;;;9.80;5.93;;;;;;;;;;4981278;28;20037;-68
2023/01/07 00:53:29;;;;;;;11.15;6.00;;;;;;;;;;4989309;28;20062;-67
2023/01/07 00:55:55;;;;;;;12.82;6.00;;;;;;;;;;4981243;28;20033;-68
2023/01/07 00:58:22;;;;;;;12.48;6.28;;;;;;;;;;4988148;28;20026;-68
2023/01/07 01:00:48;;;;;;;10.75;5.95;;;;;;;;;;4983445;28;20534;-68
2023/01/07 01:03:14;;;;;;;9.88;5.25;;;;;;;;;;4986958;28;20030;-68
2023/01/07 01:05:40;;;;;;;9.65;5.25;;;;;;;;;;4995156;28;20056;-68
2023/01/07 01:08:05;;;;;;;10.20;5.82;;;;;;;;;;4984784;28;20038;-67
2023/01/07 01:10:31;;;;;;;8.30;5.05;;;;;;;;;;4985125;28;20376;-68
2023/01/07 01:12:57;;;;;;;8.55;4.40;;;;;;;;;;4986171;28;20135;-67
2023/01/07 01:15:23;;;;;;;7.82;3.85;;;;;;;;;;4983525;28;20182;-67
2023/01/07 01:17:50;;;;;;;10.05;4.15;;;;;;;;;;5002560;28;20117;-67
2023/01/07 01:20:16;;;;;;;8.40;3.88;;;;;;;;;;5007179;28;20031;-67
2023/01/07 01:22:42;;;;;;;8.60;3.97;;;;;;;;;;4987939;28;20402;-67
2023/01/07 01:25:08;;;;;;;8.27;3.78;;;;;;;;;;4981384;28;20049;-67
2023/01/07 01:27:34;;;;;;;6.47;3.95;;;;;;;;;;4989053;28;20554;-67
2023/01/07 01:30:01;;;;;;;6.32;4.32;;;;;;;;;;4980252;28;20054;-67
2023/01/07 01:32:27;;;;;;;7.38;4.00;;;;;;;;;;4990101;28;20129;-67
2023/01/07 01:34:52;;;;;;;9.90;4.32;;;;;;;;;;4979158;28;20038;-67
2023/01/07 01:37:18;;;;;;;6.22;3.97;;;;;;;;;;4990820;28;20035;-67
2023/01/07 01:39:43;;;;;;;7.30;3.90;;;;;;;;;;4977877;28;20043;-67
2023/01/07 01:42:13;;;;;;;6.45;3.95;;;;;;;;;;4992504;28;20069;-67
2023/01/07 01:44:47;;;;;;;8.32;4.03;;;;;;;;;;4977160;28;20035;-67
2023/01/07 01:47:42;;;;;;;5.55;3.50;;;;;;;;;;4994126;28;20133;-67
2023/01/07 01:50:23;;;;;;;5.97;3.88;;;;;;;;;;5007735;28;20043;-67
2023/01/07 01:52:50;;;;;;;;;;;;;;;;;;4987107;28;20035;-67
2023/01/07 01:55:20;;;;;;;7.57;3.90;;;;;;;;;;4988553;28;19924;-67
2023/01/07 01:57:51;;;;;;;7.03;3.70;;;;;;;;;;5006949;28;20042;-67
2023/01/07 02:00:17;;;;;;;7.00;4.32;;;;;;;;;;4987303;28;20085;-67
2023/01/07 02:02:47;;;;;;;8.00;4.25;;;;;;;;;;4981014;28;20065;-67
2023/01/07 02:05:13;;;;;;;7.80;4.85;;;;;;;;;;4987737;28;20034;-67
2023/01/07 02:07:38;;;;;;;9.63;4.03;;;;;;;;;;4980211;28;20041;-67
2023/01/07 02:10:19;;;;;;;8.40;5.00;;;;;;;;;;4988696;28;20488;-66
2023/01/07 02:13:10;;;;;;;8.10;4.85;;;;;;;;;;4981008;28;20034;-67
2023/01/07 02:15:51;;;;;;;9.10;4.97;;;;;;;;;;4972067;28;20043;-67
2023/01/07 02:18:16;;;;;;;;;;;;;;;;;;4972650;28;20126;-67
2023/01/07 02:21:09;;;;;;;9.00;4.40;;;;;;;;;;4972036;28;20065;-67
2023/01/07 02:24:21;;;;;;;8.65;3.95;;;;;;;;;;4972299;28;20031;-67
2023/01/07 02:27:12;;;;;;;9.57;5.20;;;;;;;;;;4972667;28;20122;-67
2023/01/07 02:30:15;;;;;;;8.73;5.47;;;;;;;;;;4981730;28;20039;-67
2023/01/07 02:33:24;;;;;;;8.52;5.57;;;;;;;;;;4984590;28;20046;-67
2023/01/07 02:36:05;;;;;;;15.65;5.60;;;;;;;;;;4963418;28;20061;-67
2023/01/07 02:38:51;;;;;;;8.70;4.78;;;;;;;;;;4962900;28;20475;-67
2023/01/07 02:41:33;;;;;;;7.88;4.10;;;;;;;;;;4967071;28;20031;-67
2023/01/07 02:44:05;;;;;;;6.43;3.90;;;;;;;;;;4970984;28;20031;-67
2023/01/07 02:47:00;;;;;;;5.93;4.20;;;;;;;;;;4971995;28;20038;-67
2023/01/07 02:49:25;;;;;;;6.53;4.25;;;;;;;;;;4982291;28;20492;-67
2023/01/07 02:51:50;;;;;;;6.25;3.97;;;;;;;;;;4989187;28;20073;-67
2023/01/07 02:54:21;;;;;;;7.25;4.88;;;;;;;;;;5010509;28;20037;-67
2023/01/07 02:57:17;;;;;;;8.13;4.65;;;;;;;;;;4998766;28;20080;-67
2023/01/07 02:59:51;;;;;;;8.23;4.28;;;;;;;;;;4992996;28;20033;-67
2023/01/07 03:02:42;;;;;;;13.57;5.10;;;;;;;;;;5006409;28;20121;-67
2023/01/07 03:05:36;;;;;;;9.27;5.05;;;;;;;;;;4978777;28;20051;-67
2023/01/07 03:08:16;;;;;;;12.23;5.55;;;;;;;;;;4968556;28;20061;-67
2023/01/07 03:10:55;;;;;;;7.43;5.30;;;;;;;;;;4984720;28;20057;-67
2023/01/07 03:13:26;;;;;;;9.75;5.55;;;;;;;;;;4982792;28;20427;-67
2023/01/07 03:15:56;;;;;;;10.20;5.72;;;;;;;;;;4986718;28;20046;-67
2023/01/07 03:18:30;;;;;;;8.10;5.05;;;;;;;;;;4986560;28;20122;-67
2023/01/07 03:21:02;;;;;;;9.10;5.88;;;;;;;;;;4975671;28;20070;-67
2023/01/07 03:23:29;;;;;;;10.00;6.10;;;;;;;;;;4970563;28;20073;-67
2023/01/07 03:25:59;;;;;;;9.23;5.65;;;;;;;;;;4982887;28;20134;-67
2023/01/07 03:28:29;;;;;;;12.07;6.28;;;;;;;;;;4979807;28;20633;-67
2023/01/07 03:30:56;;;;;;;9.50;5.70;;;;;;;;;;4965568;28;20027;-67
2023/01/07 03:33:25;;;;;;;8.68;5.88;;;;;;;;;;4970364;28;20044;-67
2023/01/07 03:35:52;;;;;;;9.48;6.20;;;;;;;;;;4967222;28;20050;-67
2023/01/07 03:38:21;;;;;;;14.25;6.22;;;;;;;;;;4966465;28;20097;-67
2023/01/07 03:40:48;;;;;;;21.45;6.20;;;;;;;;;;4964127;28;20035;-67
2023/01/07 03:43:14;;;;;;;10.27;5.63;;;;;;;;;;4985819;28;20066;-67
2023/01/07 03:45:41;;;;;;;12.05;6.65;;;;;;;;;;4988721;28;20609;-67
2023/01/07 03:48:06;;;;;;;10.32;6.00;;;;;;;;;;4985568;28;20085;-67
2023/01/07 03:50:32;;;;;;;11.25;6.25;;;;;;;;;;4986443;28;20023;-67
2023/01/07 03:52:57;;;;;;;12.10;6.22;;;;;;;;;;4985099;28;20042;-67
2023/01/07 03:55:23;;;;;;;25.35;6.03;;;;;;;;;;4989752;28;20022;-67
2023/01/07 03:57:48;;;;;;;21.35;6.10;;;;;;;;;;4986781;28;20029;-67
2023/01/07 04:00:14;;;;;;;25.95;7.55;;;;;;;;;;4998309;28;20487;-67
2023/01/07 04:02:41;;;;;;;20.23;8.38;;;;;;;;;;4998903;28;20045;-67
2023/01/07 04:05:08;;;;;;;22.25;10.25;;;;;;;;;;4997661;28;20440;-67
2023/01/07 04:07:33;;;;;;;21.60;9.00;;;;;;;;;;5004716;28;20053;-67
2023/01/07 04:09:59;;;;;;;18.35;9.90;;;;;;;;;;5008769;28;20108;-67
2023/01/07 04:12:24;;;;;;;16.55;8.52;;;;;;;;;;5001024;28;20034;-67
2023/01/07 04:14:50;;;;;;;28.55;13.15;;;;;;;;;;4997152;28;20443;-67
2023/01/07 04:17:15;;;;;;;29.70;12.48;;;;;;;;;;5004903;28;20117;-67
2023/01/07 04:19:41;;;;;;;27.58;13.35;;;;;;;;;;5012345;28;20463;-67
2023/01/07 04:22:09;;;;;;;24.92;11.43;;;;;;;;;;5006928;28;20121;-67
2023/01/07 04:24:34;;;;;;;19.30;9.65;;;;;;;;;;4999553;28;20034;-67
2023/01/07 04:27:00;;;;;;;19.13;9.68;;;;;;;;;;5011561;28;20041;-67
2023/01/07 04:29:25;;;;;;;17.98;9.32;;;;;;;;;;5008044;28;20025;-67
2023/01/07 04:31:51;;;;;;;17.63;9.07;;;;;;;;;;5011976;28;20052;-67
2023/01/07 04:34:17;;;;;;;16.17;8.65;;;;;;;;;;5005332;28;20038;-67
2023/01/07 04:36:42;;;;;;;14.85;8.35;;;;;;;;;;5000691;28;20498;-67
2023/01/07 04:39:07;;;;;;;13.25;8.23;;;;;;;;;;5005598;28;20392;-67
2023/01/07 04:41:33;;;;;;;13.45;7.97;;;;;;;;;;5012239;28;20364;-67
2023/01/07 04:43:58;;;;;;;15.85;8.85;;;;;;;;;;5007425;28;20041;-67
2023/01/07 04:46:24;;;;;;;14.07;8.20;;;;;;;;;;5000550;28;20049;-67
2023/01/07 04:48:49;;;;;;;15.00;8.00;;;;;;;;;;5004579;28;20038;-67
2023/01/07 04:51:15;;;;;;;17.08;8.43;;;;;;;;;;5006400;28;20030;-67
2023/01/07 04:53:40;;;;;;;15.48;7.97;;;;;;;;;;5012216;28;20371;-67
2023/01/07 04:56:06;;;;;;;12.55;7.57;;;;;;;;;;5006238;28;20053;-67
2023/01/07 04:58:32;;;;;;;11.52;6.80;;;;;;;;;;5000715;28;20360;-67
2023/01/07 05:00:58;;;;;;;14.40;8.30;;;;;;;;;;5004494;28;20395;-67
2023/01/07 05:03:24;;;;;;;14.25;8.15;;;;;;;;;;5011350;28;20056;-67
2023/01/07 05:05:50;;;;;;;13.52;7.32;;;;;;;;;;5008068;28;20022;-67
2023/01/07 05:08:15;;;;;;;14.50;8.00;;;;;;;;;;5000605;28;20494;-67
2023/01/07 05:10:41;;;;;;;14.93;8.50;;;;;;;;;;5004702;28;20030;-67
2023/01/07 05:13:06;;;;;;;22.63;8.88;;;;;;;;;;5008788;28;20038;-67
2023/01/07 05:15:32;;;;;;;18.13;8.35;;;;;;;;;;5000626;28;20062;-67
2023/01/07 05:17:58;;;;;;;26.90;9.10;;;;;;;;;;4993089;28;20072;-67
2023/01/07 05:20:23;;;;;;;23.83;9.15;;;;;;;;;;4977876;28;20023;-67
2023/01/07 05:22:48;;;;;;;37.20;9.30;;;;;;;;;;4999400;28;20101;-67
2023/01/07 05:25:14;;;;;;;21.15;9.05;;;;;;;;;;5003195;28;20345;-67
2023/01/07 05:27:39;;;;;;;31.08;8.90;;;;;;;;;;5006333;28;20743;-68
2023/01/07 05:30:05;;;;;;;19.13;9.75;;;;;;;;;;5010616;28;20037;-67
2023/01/07 05:32:30;;;;;;;19.60;10.07;;;;;;;;;;4996091;28;20399;-67
2023/01/07 05:34:56;;;;;;;16.45;9.40;;;;;;;;;;4995660;28;20125;-67
2023/01/07 05:37:21;;;;;;;17.13;9.15;;;;;;;;;;4977908;28;20150;-67
2023/01/07 05:39:47;;;;;;;18.30;9.88;;;;;;;;;;4997762;28;20416;-67
2023/01/07 05:42:12;;;;;;;17.50;9.68;;;;;;;;;;4998762;28;20023;-67
2023/01/07 05:44:38;;;;;;;18.05;9.63;;;;;;;;;;5008972;28;20025;-67
2023/01/07 05:47:03;;;;;;;20.40;10.52;;;;;;;;;;4999789;28;20036;-67
2023/01/07 05:49:29;;;;;;;16.08;8.77;;;;;;;;;;4998091;28;20371;-67
2023/01/07 05:51:54;;;;;;;36.17;10.70;;;;;;;;;;5012930;28;20189;-67
2023/01/07 05:54:19;;;;;;;23.20;9.77;;;;;;;;;;4998195;28;20368;-67
2023/01/07 05:56:45;;;;;;;38.03;8.57;;;;;;;;;;5004136;28;20494;-67
2023/01/07 05:59:10;;;;;;;43.95;11.02;;;;;;;;;;5002664;28;20062;-67
2023/01/07 06:01:36;;;;;;;83.45;8.60;;;;;;;;;;4998162;28;20467;-67
2023/01/07 06:04:01;;;;;;;65.30;10.13;;;;;;;;;;5003909;28;20026;-67
2023/01/07 06:06:27;;;;;;;127.00;10.57;;;;;;;;;;4985160;28;20046;-67
2023/01/07 06:08:52;;;;;;;165.35;11.32;;;;;;;;;;4992428;28;20030;-67
2023/01/07 06:11:18;;;;;;;184.27;11.15;;;;;;;;;;4986399;28;20038;-67
2023/01/07 06:13:43;;;;;;;154.63;9.10;;;;;;;;;;4982654;28;20093;-67
2023/01/07 06:16:11;;;;;;;188.50;11.32;;;;;;;;;;5007101;28;20104;-67
2023/01/07 06:18:36;;;;;;;134.43;10.20;;;;;;;;;;4987874;28;20033;-67
2023/01/07 06:21:02;;;;;;;157.27;8.93;;;;;;;;;;5010016;28;20423;-67
2023/01/07 06:23:27;;;;;;;134.77;9.35;;;;;;;;;;5007799;28;20038;-67
2023/01/07 06:25:53;;;;;;;137.80;10.00;;;;;;;;;;4997980;28;20026;-67
2023/01/07 06:28:18;;;;;;;205.80;11.43;;;;;;;;;;5001921;28;20552;-67
2023/01/07 06:30:45;;;;;;;113.68;10.48;;;;;;;;;;4990562;28;20110;-67
2023/01/07 06:33:11;;;;;;;124.20;10.20;;;;;;;;;;4996775;28;20098;-67
2023/01/07 06:35:36;;;;;;;117.53;8.48;;;;;;;;;;4991740;28;20035;-67
2023/01/07 06:38:01;;;;;;;137.45;9.48;;;;;;;;;;4975878;28;20027;-67
2023/01/07 06:40:27;;;;;;;106.05;10.93;;;;;;;;;;5011932;28;20459;-67
2023/01/07 06:42:52;;;;;;;83.32;8.68;;;;;;;;;;4993361;28;20042;-67
2023/01/07 06:45:18;;;;;;;79.15;8.07;;;;;;;;;;4991895;28;20026;-67
2023/01/07 06:47:44;;;;;;;149.77;10.52;;;;;;;;;;4994230;28;20033;-67
2023/01/07 06:50:10;;;;;;;149.23;10.10;;;;;;;;;;4985710;28;20081;-67
2023/01/07 06:52:35;;;;;;;156.48;8.98;;;;;;;;;;5003770;28;20475;-67
2023/01/07 06:55:01;;;;;;;122.45;8.68;;;;;;;;;;5007895;28;20026;-67
2023/01/07 06:57:26;;;;;;;156.82;8.38;;;;;;;;;;5011728;28;20169;-67
2023/01/07 06:59:52;;;;;;;173.95;10.30;;;;;;;;;;4993450;28;20022;-67
2023/01/07 07:02:20;;;;;;;147.32;9.52;;;;;;;;;;4982346;28;20027;-67
2023/01/07 07:04:45;;;;;;;71.75;7.13;;;;;;;;;;4997923;28;20034;-67
2023/01/07 07:07:11;;;;;;;117.32;8.80;;;;;;;;;;4975133;28;20086;-67
2023/01/07 07:09:36;;;;;;;140.05;8.85;;;;;;;;;;4997438;28;20439;-67
2023/01/07 07:12:02;;;;;;;77.53;7.78;;;;;;;;;;4995670;28;20039;-67
2023/01/07 07:14:27;;;;;;;121.95;8.35;;;;;;;;;;4977080;28;20101;-67
2023/01/07 07:16:53;;;;;;;145.18;9.82;;;;;;;;;;5002520;28;20545;-67
2023/01/07 07:19:18;;;;;;;108.30;8.90;;;;;;;;;;4997584;28;20034;-67
2023/01/07 07:21:45;;;;;;;108.65;9.32;;;;;;;;;;4994786;28;20085;-67
2023/01/07 07:24:10;;;;;;;107.25;11.30;;;;;;;;;;5002154;28;20088;-67
2023/01/07 07:26:36;;;;;;;72.50;8.13;;;;;;;;;;5006051;28;20030;-67
2023/01/07 07:29:01;;;;;;;58.20;7.93;;;;;;;;;;5010336;28;20026;-67
2023/01/07 07:31:27;;;;;;;74.50;7.65;;;;;;;;;;5000595;28;20088;-67
2023/01/07 07:33:52;;;;;;;113.25;9.77;;;;;;;;;;4998058;28;20046;-68
2023/01/07 07:36:17;;;;;;;185.63;10.80;;;;;;;;;;4982535;28;20054;-67
2023/01/07 07:38:43;;;;;;;78.57;8.98;;;;;;;;;;4993335;28;20422;-67
2023/01/07 07:41:08;;;;;;;103.88;7.72;;;;;;;;;;5003072;28;20035;-67
2023/01/07 07:43:35;;;;;;;103.72;8.77;;;;;;;;;;4984435;28;20029;-67
2023/01/07 07:46:00;;;;;;;55.45;7.05;;;;;;;;;;4997718;28;20069;-67
2023/01/07 07:48:25;;;;;;;135.30;9.75;;;;;;;;;;5003787;28;20495;-67
2023/01/07 07:50:51;;;;;;;95.88;8.40;;;;;;;;;;5011071;28;20028;-67
2023/01/07 07:53:17;;;;;;;137.57;12.95;;;;;;;;;;5004566;28;20117;-67
2023/01/07 07:55:43;;;;;;;44.25;5.88;;;;;;;;;;5001384;28;20026;-67
2023/01/07 07:58:08;;;;;;;83.63;8.43;;;;;;;;;;5005470;28;20105;-67
2023/01/07 08:00:34;;;;;;;89.88;8.43;;;;;;;;;;4987931;28;20050;-67
2023/01/07 08:02:59;;;;;;;97.78;9.05;;;;;;;;;;4993553;28;20448;-67
2023/01/07 08:05:25;;;;;;;113.35;9.52;;;;;;;;;;4989060;28;20035;-67
2023/01/07 08:07:51;;;;;;;108.35;8.95;;;;;;;;;;4987638;28;20029;-67
2023/01/07 08:10:17;;;;;;;70.65;8.52;;;;;;;;;;5009439;28;20041;-67
2023/01/07 08:12:43;;;;;;;49.10;7.85;;;;;;;;;;4990608;28;20034;-67
2023/01/07 08:15:09;;;;;;;78.65;9.85;;;;;;;;;;5004725;28;20403;-67
2023/01/07 08:17:37;;;;;;;69.72;10.38;;;;;;;;;;5005654;28;20034;-67
2023/01/07 08:20:05;;;;;;;83.28;9.68;;;;;;;;;;5011570;28;20383;-67
2023/01/07 08:22:30;;;;;;;102.38;11.13;;;;;;;;;;5010016;28;20034;-67
2023/01/07 08:24:55;;;;;;;74.55;11.18;;;;;;;;;;4992832;28;20026;-67
2023/01/07 08:27:21;;;;;;;84.55;9.35;;;;;;;;;;4996345;28;20029;-67
2023/01/07 08:29:47;;;;;;;80.00;9.90;;;;;;;;;;4996677;28;20499;-67
2023/01/07 08:32:12;;;;;;;80.07;11.70;;;;;;;;;;5004271;28;20522;-67
2023/01/07 08:34:37;;;;;;;51.05;8.25;;;;;;;;;;4995788;28;20041;-67
2023/01/07 08:37:03;;;;;;;56.03;8.65;;;;;;;;;;4995741;28;20026;-67
2023/01/07 08:39:28;;;;;;;38.22;6.53;;;;;;;;;;4995428;28;20026;-67
2023/01/07 08:41:54;;;;;;;48.40;8.40;;;;;;;;;;4996550;28;20379;-67
2023/01/07 08:44:19;;;;;;;22.52;4.97;;;;;;;;;;4995767;28;20081;-67
2023/01/07 08:46:45;;;;;;;73.30;8.93;;;;;;;;;;4978185;28;20035;-67
2023/01/07 08:49:10;;;;;;;61.65;8.98;;;;;;;;;;4992492;28;20034;-67
2023/01/07 08:51:36;;;;;;;37.67;7.97;;;;;;;;;;4979630;28;20039;-67
2023/01/07 08:54:02;;;;;;;32.15;8.20;;;;;;;;;;5004336;28;20025;-67
2023/01/07 08:56:27;;;;;;;40.38;8.70;;;;;;;;;;5014636;28;20113;-67
2023/01/07 08:58:53;;;;;;;29.60;8.38;;;;;;;;;;4996532;28;20045;-67
2023/01/07 09:01:18;;;;;;;56.70;8.68;;;;;;;;;;4981471;28;20038;-66
2023/01/07 09:03:44;;;;;;;51.08;8.10;;;;;;;;;;4993076;28;20030;-67
2023/01/07 09:06:09;;;;;;;52.65;8.10;;;;;;;;;;4989366;28;20172;-67
2023/01/07 09:08:35;;;;;;;47.47;9.13;;;;;;;;;;4990768;28;20058;-67
2023/01/07 09:11:01;;;;;;;86.57;10.82;;;;;;;;;;4987581;28;20085;-67
2023/01/07 09:13:26;;;;;;;53.40;9.30;;;;;;;;;;4989197;28;20503;-67
2023/01/07 09:15:52;;;;;;;44.95;10.80;;;;;;;;;;4987641;28;20173;-67
2023/01/07 09:18:18;;;;;;;44.17;9.00;;;;;;;;;;4989566;28;20124;-67
2023/01/07 09:20:44;;;;;;;67.03;10.40;;;;;;;;;;4988687;28;20534;-67
2023/01/07 09:23:09;;;;;;;56.08;12.27;;;;;;;;;;4988287;28;20046;-67
2023/01/07 09:25:35;;;;;;;42.75;11.40;;;;;;;;;;4984839;28;20042;-67
2023/01/07 09:28:00;;;;;;;29.75;10.85;;;;;;;;;;4989341;28;20030;-67
2023/01/07 09:30:26;;;;;;;23.63;11.07;;;;;;;;;;4989263;28;20030;-67
2023/01/07 09:32:51;;;;;;;51.53;11.70;;;;;;;;;;4987717;28;20085;-67
2023/01/07 09:35:17;;;;;;;23.77;9.88;;;;;;;;;;4987567;28;20054;-67
2023/01/07 09:37:42;;;;;;;21.63;10.40;;;;;;;;;;4987755;28;20059;-66
2023/01/07 09:40:18;;;;;;;23.73;10.98;;;;;;;;;;4988415;28;20062;-67
2023/01/07 09:43:06;;;;;;;18.35;9.93;;;;;;;;;;4988141;28;20475;-67
2023/01/07 09:45:59;;;;;;;22.42;10.07;;;;;;;;;;4985970;28;20059;-67
2023/01/07 09:48:37;;;;;;;17.50;9.38;;;;;;;;;;4998809;28;20101;-67
2023/01/07 09:51:09;;;;;;;21.50;11.30;;;;;;;;;;5006263;28;20501;-67
2023/01/07 09:53:42;;;;;;;22.80;10.98;;;;;;;;;;5010597;28;20120;-68
2023/01/07 09:56:26;;;;;;;17.83;8.68;;;;;;;;;;4997357;28;20075;-68
2023/01/07 09:58:53;;;;;;;21.00;10.52;;;;;;;;;;5002420;28;20038;-69
2023/01/07 10:02:05;;;;;;;10.90;5.95;;;;;;;;;;5006483;28;20426;-68
2023/01/07 10:04:38;;;;;;;17.40;8.90;;;;;;;;;;4952489;29;20607;-69
2023/01/07 10:07:19;;;;;;;20.38;10.18;;;;;;;;;;4952983;29;20125;-69
2023/01/07 10:10:13;;;;;;;19.10;8.57;;;;;;;;;;4953035;29;20047;-69
2023/01/07 10:12:47;;;;;;;18.02;9.40;;;;;;;;;;4944712;29;20035;-66
2023/01/07 10:15:40;;;;;;;17.90;10.15;;;;;;;;;;4952881;29;20075;-69
2023/01/07 10:18:24;;;;;;;17.30;8.57;;;;;;;;;;4952574;29;20049;-69
2023/01/07 10:21:03;;;;;;;17.60;9.50;;;;;;;;;;4949532;29;20035;-69
2023/01/07 10:23:35;;;;;;;24.63;11.50;;;;;;;;;;4951614;28;20437;-69
2023/01/07 10:26:01;;;;;;;23.10;11.43;;;;;;;;;;4952318;28;20322;-69
2023/01/07 10:28:41;;;;;;;23.73;11.85;;;;;;;;;;4952607;29;20035;-69
2023/01/07 10:31:21;;;;;;;21.63;11.48;;;;;;;;;;4952306;28;20037;-69
2023/01/07 10:33:48;;;;;;;15.75;8.00;;;;;;;;;;4952554;29;20086;-69
2023/01/07 10:36:37;;;;;;;21.02;11.32;;;;;;;;;;4949435;29;20043;-69
2023/01/07 10:39:20;;;;;;;15.32;8.25;;;;;;;;;;4943172;29;20046;-67
2023/01/07 10:41:55;;;;;;;19.33;10.40;;;;;;;;;;4978802;28;20060;-67
2023/01/07 10:44:42;;;;;;;21.85;12.20;;;;;;;;;;4980884;28;20129;-67
2023/01/07 10:47:33;;;;;;;19.27;10.65;;;;;;;;;;4998070;28;20033;-67
2023/01/07 10:50:23;;;;;;;22.65;12.55;;;;;;;;;;4992932;28;20038;-67
2023/01/07 10:52:58;;;;;;;23.05;12.48;;;;;;;;;;4972055;28;20119;-67
2023/01/07 10:55:36;;;;;;;20.90;11.48;;;;;;;;;;4971627;28;20042;-67
2023/01/07 10:58:02;;;;;;;23.15;12.63;;;;;;;;;;4991313;28;20026;-67
2023/01/07 11:00:28;;;;;;;26.42;12.93;;;;;;;;;;4990073;28;20131;-67
2023/01/07 11:02:57;;;;;;;27.20;13.07;;;;;;;;;;4989675;28;20034;-67
2023/01/07 11:05:27;;;;;;;28.08;13.65;;;;;;;;;;4974855;28;20514;-67
2023/01/07 11:07:57;;;;;;;23.73;12.13;;;;;;;;;;4989240;28;20084;-67
2023/01/07 11:10:27;;;;;;;27.05;13.45;;;;;;;;;;4989022;28;20377;-67
2023/01/07 11:13:14;;;;;;;22.00;12.93;;;;;;;;;;4988533;28;20034;-67
2023/01/07 11:15:54;;;;;;;23.02;12.85;;;;;;;;;;4988051;28;20046;-67
2023/01/07 11:18:27;;;;;;;24.88;14.60;;;;;;;;;;4988392;28;20559;-67
2023/01/07 11:20:57;;;;;;;21.88;12.88;;;;;;;;;;4988546;28;20034;-67
2023/01/07 11:23:27;;;;;;;22.48;13.38;;;;;;;;;;4980444;28;20031;-67
2023/01/07 11:25:53;;;;;;;25.08;13.80;;;;;;;;;;4978869;28;20034;-67
2023/01/07 11:28:32;;;;;;;24.42;14.43;;;;;;;;;;4987322;28;20027;-67
2023/01/07 11:30:58;;;;;;;27.10;13.68;;;;;;;;;;4984045;28;20030;-67
2023/01/07 11:33:30;;;;;;;23.90;12.25;;;;;;;;;;5006646;28;20095;-67
2023/01/07 11:35:56;;;;;;;25.98;15.00;;;;;;;;;;5003985;28;20498;-67
2023/01/07 11:38:30;;;;;;;32.33;14.73;;;;;;;;;;4985058;28;20031;-67
2023/01/07 11:40:57;;;;;;;27.58;14.65;;;;;;;;;;4989474;28;20042;-67
2023/01/07 11:43:29;;;;;;;28.55;15.50;;;;;;;;;;4985006;28;20109;-67
2023/01/07 11:45:58;;;;;;;29.55;15.00;;;;;;;;;;4989106;28;20030;-67
2023/01/07 11:48:38;;;;;;;29.88;15.50;;;;;;;;;;4984686;28;20121;-67
2023/01/07 11:51:05;;;;;;;;;;;;;;;;;;4990898;28;20049;-67
2023/01/07 11:53:48;;;;;;;26.63;13.73;;;;;;;;;;4983880;28;20012;-67
2023/01/07 11:56:34;;;;;;;26.83;15.02;;;;;;;;;;4991492;28;20041;-67
2023/01/07 11:59:14;;;;;;;29.75;15.82;;;;;;;;;;4977477;28;20050;-67
2023/01/07 12:01:51;;;;;;;25.33;14.80;;;;;;;;;;4994653;28;20440;-67
2023/01/07 12:04:27;;;;;;;25.77;13.38;;;;;;;;;;4983523;28;20109;-67
2023/01/07 12:07:03;;;;;;;27.77;15.32;;;;;;;;;;4988637;28;20038;-67
2023/01/07 12:09:31;;;;;;;28.48;14.80;;;;;;;;;;4984869;28;20026;-67
2023/01/07 12:12:30;;;;;;;28.58;16.52;;;;;;;;;;5008197;28;20471;-67
2023/01/07 12:15:14;;;;;;;29.55;16.33;;;;;;;;;;4999698;28;20038;-67
2023/01/07 12:17:46;;;;;;;30.55;16.83;;;;;;;;;;4978525;28;20027;-67
2023/01/07 12:20:48;;;;;;;30.23;16.25;;;;;;;;;;4994509;28;20498;-67
2023/01/07 12:23:25;;;;;;;25.58;14.48;;;;;;;;;;4978498;28;20037;-67
2023/01/07 12:26:03;;;;;;;29.45;16.15;;;;;;;;;;4993016;28;20030;-67
2023/01/07 12:28:45;;;;;;;25.30;16.02;;;;;;;;;;4980130;28;20041;-67
2023/01/07 12:31:26;;;;;;;26.90;16.05;;;;;;;;;;4990317;28;20035;-67
2023/01/07 12:34:04;;;;;;;29.13;16.35;;;;;;;;;;4991260;28;20050;-67
2023/01/07 12:36:44;;;;;;;28.52;17.02;;;;;;;;;;4983280;28;20448;-67
2023/01/07 12:39:14;;;;;;;;;;;;;;;;;;4991538;28;20034;-67
2023/01/07 12:41:45;;;;;;;25.73;15.13;;;;;;;;;;5006028;28;20016;-67
2023/01/07 12:44:15;;;;;;;25.90;14.38;;;;;;;;;;4995028;28;20559;-67
2023/01/07 12:46:58;;;;;;;26.05;15.77;;;;;;;;;;4991308;28;20125;-67
2023/01/07 12:50:01;;;;;;;25.75;15.32;;;;;;;;;;4996090;28;20508;-67
2023/01/07 12:52:56;;;;;;;23.55;14.07;;;;;;;;;;4993925;28;20194;-67
2023/01/07 12:55:27;;;;;;;30.50;16.77;;;;;;;;;;4996148;28;20083;-67
2023/01/07 12:57:52;;;;;;;26.65;14.88;;;;;;;;;;4995189;28;20022;-67
2023/01/07 13:00:21;;;;;;;27.73;16.10;;;;;;;;;;4976829;28;20038;-67
2023/01/07 13:03:10;;;;;;;29.58;17.45;;;;;;;;;;4993603;28;20480;-67
2023/01/07 13:05:40;;;;;;;29.33;17.13;;;;;;;;;;4972900;28;20472;-67
2023/01/07 13:08:24;;;;;;;31.25;17.50;;;;;;;;;;4994637;28;20472;-67
2023/01/07 13:10:58;;;;;;;27.15;16.42;;;;;;;;;;4977784;28;20084;-67
2023/01/07 13:13:39;;;;;;;36.20;18.02;;;;;;;;;;4992173;28;20467;-67
2023/01/07 13:16:08;;;;;;;28.10;16.70;;;;;;;;;;4979357;28;20121;-67
2023/01/07 13:18:33;;;;;;;28.95;15.80;;;;;;;;;;4991135;28;20031;-67
2023/01/07 13:21:06;;;;;;;24.85;15.38;;;;;;;;;;4977358;28;20173;-67
2023/01/07 13:24:09;;;;;;;25.48;16.02;;;;;;;;;;4991065;28;20039;-67
2023/01/07 13:26:58;;;;;;;20.63;12.70;;;;;;;;;;4991232;28;20033;-67
2023/01/07 13:29:27;;;;;;;22.42;14.63;;;;;;;;;;5000446;28;20050;-67
2023/01/07 13:32:14;;;;;;;24.00;15.63;;;;;;;;;;4980014;28;20031;-67
2023/01/07 13:34:51;;;;;;;20.02;13.82;;;;;;;;;;4991602;28;20507;-67
2023/01/07 13:37:44;;;;;;;22.20;14.55;;;;;;;;;;4975715;28;20476;-67
2023/01/07 13:40:47;;;;;;;22.40;12.52;;;;;;;;;;4975411;28;20400;-67
2023/01/07 13:43:30;;;;;;;19.58;12.95;;;;;;;;;;4989610;28;20031;-67
2023/01/07 13:46:00;;;;;;;20.08;13.45;;;;;;;;;;4981355;28;20030;-67
2023/01/07 13:48:27;;;;;;;22.50;15.32;;;;;;;;;;4987408;28;20488;-67
2023/01/07 13:51:01;;;;;;;19.60;12.40;;;;;;;;;;4980535;28;20439;-67
2023/01/07 13:53:44;;;;;;;20.27;13.90;;;;;;;;;;4987615;28;20485;-67
2023/01/07 13:56:15;;;;;;;20.27;14.18;;;;;;;;;;4990615;28;20449;-68
2023/01/07 13:58:41;;;;;;;21.25;14.52;;;;;;;;;;5001126;28;20043;-67
2023/01/07 14:01:10;;;;;;;19.63;13.20;;;;;;;;;;4982112;28;20033;-67
2023/01/07 14:03:43;;;;;;;20.08;13.80;;;;;;;;;;4986156;28;20045;-68
2023/01/07 14:06:20;;;;;;;18.20;13.65;;;;;;;;;;5005629;28;20040;-67
2023/01/07 14:08:57;;;;;;;20.13;14.80;;;;;;;;;;5000262;28;20031;-67
2023/01/07 14:11:29;;;;;;;24.27;15.10;;;;;;;;;;4979757;28;20174;-67
2023/01/07 14:14:31;;;;;;;22.88;15.35;;;;;;;;;;4988176;28;20490;-67
2023/01/07 14:17:32;;;;;;;14.10;8.73;;;;;;;;;;4975215;28;20035;-67
2023/01/07 14:20:07;;;;;;;19.80;13.65;;;;;;;;;;4978658;28;20047;-67
2023/01/07 14:22:57;;;;;;;19.98;14.18;;;;;;;;;;4990684;28;20436;-67
2023/01/07 14:25:44;;;;;;;22.48;14.52;;;;;;;;;;4982379;28;20027;-67
2023/01/07 14:28:38;;;;;;;21.00;14.35;;;;;;;;;;4989874;28;20467;-67
2023/01/07 14:31:04;;;;;;;18.55;13.10;;;;;;;;;;4978429;28;20030;-67
2023/01/07 14:33:48;;;;;;;21.10;13.32;;;;;;;;;;4986196;28;20038;-67
2023/01/07 14:36:13;;;;;;;17.73;12.25;;;;;;;;;;4992039;28;20033;-67
2023/01/07 14:38:42;;;;;;;21.23;14.82;;;;;;;;;;4992696;28;20418;-67
2023/01/07 14:41:15;;;;;;;23.02;14.20;;;;;;;;;;4986164;28;20503;-67
2023/01/07 14:43:46;;;;;;;21.23;13.82;;;;;;;;;;4989867;28;20456;-67
2023/01/07 14:46:20;;;;;;;19.13;13.38;;;;;;;;;;5009006;28;20033;-67
2023/01/07 14:49:11;;;;;;;18.33;13.85;;;;;;;;;;4996152;28;20487;-67
2023/01/07 14:51:46;;;;;;;20.73;12.57;;;;;;;;;;4974159;28;20338;-67
2023/01/07 14:54:32;;;;;;;17.60;12.43;;;;;;;;;;4973785;28;20062;-67